createdAt,value
2018-10-19T00:00:09.469Z,87.57
2018-10-19T00:02:38.032Z,87.30
2018-10-19T00:05:06.495Z,89.37
2018-10-19T00:07:34.787Z,93.33
2018-10-19T00:10:03.113Z,96.73
2018-10-19T00:12:31.506Z,95.70
2018-10-19T00:14:59.903Z,91.13
2018-10-19T00:17:28.308Z,88.27
2018-10-19T00:19:57.589Z,86.40
2018-10-19T00:22:25.930Z,82.20
2018-10-19T00:24:54.300Z,86.27
2018-10-19T00:27:22.633Z,89.00
2018-10-19T00:29:50.978Z,95.00
2018-10-19T00:32:19.314Z,90.70
2018-10-19T00:34:47.653Z,89.73
2018-10-19T00:37:16.014Z,95.60
2018-10-19T00:39:44.404Z,96.63
2018-10-19T00:42:12.787Z,91.60
2018-10-19T00:44:41.119Z,89.30
2018-10-19T00:47:09.481Z,90.37
2018-10-19T00:49:37.901Z,88.50
2018-10-19T00:52:06.305Z,92.00
2018-10-19T00:54:34.605Z,89.60
2018-10-19T00:57:02.935Z,89.07
2018-10-19T00:59:31.411Z,97.60
2018-10-19T01:01:59.806Z,92.03
2018-10-19T01:04:28.357Z,92.97
2018-10-19T01:06:56.683Z,92.87
2018-10-19T01:09:25.007Z,93.33
2018-10-19T01:11:53.337Z,93.63
2018-10-19T01:14:21.649Z,91.20
2018-10-19T01:16:50.135Z,96.33
2018-10-19T01:19:18.479Z,97.97
2018-10-19T01:21:46.807Z,92.67
2018-10-19T01:24:15.132Z,89.47
2018-10-19T01:26:43.445Z,90.97
2018-10-19T01:29:11.867Z,95.77
2018-10-19T01:31:41.010Z,116.30
2018-10-19T01:34:09.530Z,121.20
2018-10-19T01:36:44.981Z,127.77
2018-10-19T01:39:14.091Z,128.57
2018-10-19T01:41:43.949Z,134.40
2018-10-19T01:44:12.384Z,125.70
2018-10-19T01:46:46.085Z,123.37
2018-10-19T01:49:14.399Z,110.50
2018-10-19T01:51:42.986Z,112.77
2018-10-19T01:54:11.302Z,104.50
2018-10-19T01:56:39.787Z,109.50
2018-10-19T01:59:08.182Z,110.93
2018-10-19T02:01:36.542Z,122.63
2018-10-19T02:04:05.053Z,129.07
2018-10-19T02:06:33.362Z,130.93
2018-10-19T02:09:01.855Z,130.90
2018-10-19T02:11:30.354Z,142.77
2018-10-19T02:13:58.654Z,140.33
2018-10-19T02:16:26.987Z,130.10
2018-10-19T02:18:55.304Z,121.13
2018-10-19T02:21:23.652Z,111.00
2018-10-19T02:23:52.095Z,102.53
2018-10-19T02:26:21.465Z,105.23
2018-10-19T02:28:49.783Z,105.30
2018-10-19T02:31:18.100Z,104.30
2018-10-19T02:33:46.511Z,125.80
2018-10-19T02:36:14.853Z,144.70
2018-10-19T02:38:43.200Z,169.13
2018-10-19T02:41:11.681Z,158.53
2018-10-19T02:43:39.937Z,170.87
2018-10-19T02:46:08.226Z,159.50
2018-10-19T02:48:36.663Z,155.50
2018-10-19T02:51:04.995Z,155.43
2018-10-19T02:53:33.307Z,163.97
2018-10-19T02:56:01.770Z,152.30
2018-10-19T02:58:30.109Z,147.07
2018-10-19T03:00:58.486Z,147.20
2018-10-19T03:03:26.802Z,151.23
2018-10-19T03:05:55.132Z,144.37
2018-10-19T03:08:23.573Z,142.53
2018-10-19T03:10:51.990Z,147.07
2018-10-19T03:13:20.346Z,144.57
2018-10-19T03:15:48.646Z,141.73
2018-10-19T03:18:17.010Z,144.40
2018-10-19T03:20:45.352Z,138.37
2018-10-19T03:23:13.816Z,140.03
2018-10-19T03:25:42.275Z,137.33
2018-10-19T03:28:10.610Z,138.27
2018-10-19T03:30:38.931Z,130.20
2018-10-19T03:33:07.326Z,134.47
2018-10-19T03:35:35.768Z,132.57
2018-10-19T03:38:04.265Z,134.87
2018-10-19T03:40:33.656Z,130.97
2018-10-19T03:43:02.024Z,132.23
2018-10-19T03:45:30.374Z,122.80
2018-10-19T03:47:58.685Z,124.43
2018-10-19T03:50:27.106Z,130.53
2018-10-19T03:52:55.800Z,120.93
2018-10-19T03:55:24.227Z,129.27
2018-10-19T03:57:52.604Z,124.80
2018-10-19T04:00:20.967Z,122.83
2018-10-19T04:02:49.321Z,121.60
2018-10-19T04:05:17.719Z,121.23
2018-10-19T04:07:46.040Z,125.97
2018-10-19T04:10:14.435Z,122.90
2018-10-19T04:12:42.815Z,128.83
2018-10-19T04:15:11.323Z,132.00
2018-10-19T04:17:39.736Z,133.17
2018-10-19T04:20:08.047Z,132.17
2018-10-19T04:22:36.332Z,133.27
2018-10-19T04:25:06.042Z,138.57
2018-10-19T04:27:34.527Z,125.43
2018-10-19T04:30:02.917Z,125.93
2018-10-19T04:32:31.264Z,127.07
2018-10-19T04:34:59.659Z,121.83
2018-10-19T04:37:27.981Z,134.50
2018-10-19T04:39:56.458Z,128.90
2018-10-19T04:42:25.017Z,136.30
2018-10-19T04:44:53.370Z,133.77
2018-10-19T04:47:21.663Z,130.60
2018-10-19T04:49:49.967Z,150.73
2018-10-19T04:52:18.380Z,142.40
2018-10-19T04:54:46.764Z,144.57
2018-10-19T04:57:15.171Z,137.03
2018-10-19T04:59:43.515Z,132.43
2018-10-19T05:02:11.813Z,133.60
2018-10-19T05:04:40.230Z,134.90
2018-10-19T05:07:08.541Z,141.60
2018-10-19T05:09:43.584Z,143.77
2018-10-19T05:12:11.906Z,138.17
2018-10-19T05:14:41.080Z,127.80
2018-10-19T05:17:09.479Z,132.80
2018-10-19T05:19:37.745Z,124.33
2018-10-19T05:25:19.944Z,124.57
2018-10-19T05:27:48.245Z,124.07
2018-10-19T05:30:16.558Z,120.63
2018-10-19T05:32:45.170Z,122.63
2018-10-19T05:35:13.522Z,131.53
2018-10-19T05:37:42.189Z,147.80
2018-10-19T05:40:11.129Z,130.60
2018-10-19T05:42:41.312Z,130.33
2018-10-19T05:45:10.889Z,124.93
2018-10-19T05:47:39.314Z,120.80
2018-10-19T05:50:08.600Z,118.70
2018-10-19T05:52:37.515Z,117.23
2018-10-19T05:55:05.928Z,113.73
2018-10-19T05:57:35.003Z,116.87
2018-10-19T06:00:04.006Z,117.77
2018-10-19T06:02:32.904Z,115.07
2018-10-19T06:05:01.324Z,120.10
2018-10-19T06:07:29.534Z,114.13
2018-10-19T06:09:57.894Z,112.90
2018-10-19T06:12:26.161Z,114.67
2018-10-19T06:14:54.416Z,112.73
2018-10-19T06:17:22.767Z,112.37
2018-10-19T06:19:51.026Z,112.90
2018-10-19T06:22:19.333Z,114.33
2018-10-19T06:24:47.613Z,117.27
2018-10-19T06:27:15.889Z,116.47
2018-10-19T06:29:44.211Z,113.17
2018-10-19T06:32:12.595Z,112.03
2018-10-19T06:34:40.840Z,110.03
2018-10-19T06:37:09.180Z,111.50
2018-10-19T06:39:37.533Z,109.00
2018-10-19T06:42:05.950Z,108.20
2018-10-19T06:44:34.230Z,109.33
2018-10-19T06:47:02.537Z,106.60
2018-10-19T06:49:30.810Z,109.73
2018-10-19T06:51:59.110Z,107.10
2018-10-19T06:54:27.426Z,107.97
2018-10-19T06:56:55.737Z,107.23
2018-10-19T06:59:24.029Z,104.37
2018-10-19T07:01:52.360Z,101.90
2018-10-19T07:04:20.660Z,97.53
2018-10-19T07:06:49.058Z,103.50
2018-10-19T07:09:17.331Z,103.33
2018-10-19T07:11:45.608Z,103.30
2018-10-19T07:14:14.010Z,102.80
2018-10-19T07:16:42.233Z,102.87
2018-10-19T07:19:10.665Z,100.17
2018-10-19T07:21:40.136Z,102.80
2018-10-19T07:24:08.426Z,102.27
2018-10-19T07:26:36.976Z,102.73
2018-10-19T07:29:05.387Z,107.60
2018-10-19T07:31:33.648Z,104.90
2018-10-19T07:34:02.044Z,101.57
2018-10-19T07:36:30.441Z,96.57
2018-10-19T07:38:58.653Z,99.10
2018-10-19T07:41:26.959Z,99.27
2018-10-19T07:43:55.257Z,99.23
2018-10-19T07:46:23.588Z,95.27
2018-10-19T07:48:52.108Z,96.03
2018-10-19T07:51:21.005Z,91.97
2018-10-19T07:53:49.245Z,90.70
2018-10-19T07:56:17.613Z,94.83
2018-10-19T07:58:45.863Z,92.27
2018-10-19T08:01:14.191Z,91.60
2018-10-19T08:03:42.462Z,86.00
2018-10-19T08:06:10.724Z,83.33
2018-10-19T08:08:39.047Z,85.20
2018-10-19T08:11:07.437Z,86.73
2018-10-19T08:13:35.721Z,83.73
2018-10-19T08:16:03.991Z,84.50
2018-10-19T08:18:32.305Z,81.30
2018-10-19T08:21:00.713Z,79.20
2018-10-19T08:23:28.973Z,75.93
2018-10-19T08:25:57.279Z,74.77
2018-10-19T08:28:25.505Z,78.10
2018-10-19T08:30:53.768Z,82.07
2018-10-19T08:33:23.098Z,82.70
2018-10-19T08:35:51.776Z,79.73
2018-10-19T08:38:20.067Z,79.37
2018-10-19T08:40:48.354Z,75.73
2018-10-19T08:43:16.675Z,79.27
2018-10-19T08:45:45.001Z,76.47
2018-10-19T08:48:13.333Z,73.87
2018-10-19T08:50:41.612Z,75.47
2018-10-19T08:53:09.930Z,75.90
2018-10-19T08:55:38.172Z,79.13
2018-10-19T08:58:06.657Z,76.10
2018-10-19T09:00:34.937Z,75.33
2018-10-19T09:03:03.350Z,78.43
2018-10-19T09:05:31.650Z,75.73
2018-10-19T09:07:59.904Z,76.33
2018-10-19T09:10:28.249Z,78.87
2018-10-19T09:12:56.625Z,79.37
2018-10-19T09:15:24.885Z,74.20
2018-10-19T09:17:53.174Z,77.87
2018-10-19T09:20:21.449Z,77.33
2018-10-19T09:22:49.782Z,74.33
2018-10-19T09:25:18.044Z,76.50
2018-10-19T09:27:46.300Z,79.97
2018-10-19T09:30:14.555Z,79.47
2018-10-19T09:32:42.840Z,78.73
2018-10-19T09:35:11.207Z,77.20
2018-10-19T09:37:39.431Z,73.07
2018-10-19T09:40:07.750Z,75.53
2018-10-19T09:42:35.976Z,74.40
2018-10-19T09:45:04.545Z,74.93
2018-10-19T09:47:32.839Z,78.37
2018-10-19T09:50:01.158Z,75.80
2018-10-19T09:52:29.414Z,74.97
2018-10-19T09:54:57.680Z,71.63
2018-10-19T09:57:26.026Z,70.03
2018-10-19T09:59:54.429Z,80.40
2018-10-19T10:02:22.674Z,71.87
2018-10-19T10:04:50.916Z,70.20
2018-10-19T10:07:19.184Z,70.47
2018-10-19T10:09:47.445Z,74.00
2018-10-19T10:12:15.793Z,72.70
2018-10-19T10:14:44.107Z,73.03
2018-10-19T10:17:12.461Z,72.63
2018-10-19T10:19:40.702Z,74.33
2018-10-19T10:22:09.011Z,72.17
2018-10-19T10:24:37.435Z,73.57
2018-10-19T10:27:05.736Z,72.63
2018-10-19T10:29:34.012Z,73.43
2018-10-19T10:32:02.266Z,71.07
2018-10-19T10:34:30.561Z,70.77
2018-10-19T10:36:58.977Z,70.67
2018-10-19T10:39:27.294Z,68.17
2018-10-19T10:41:55.564Z,68.07
2018-10-19T10:44:23.809Z,67.57
2018-10-19T10:46:52.148Z,67.70
2018-10-19T10:49:20.420Z,64.57
2018-10-19T10:51:48.686Z,62.80
2018-10-19T10:54:16.955Z,62.37
2018-10-19T10:56:45.197Z,60.57
2018-10-19T10:59:13.462Z,60.00
2018-10-19T11:01:41.840Z,60.40
2018-10-19T11:04:10.192Z,61.53
2018-10-19T11:06:38.475Z,60.40
2018-10-19T11:09:08.222Z,57.47
2018-10-19T11:11:36.481Z,56.80
2018-10-19T11:14:04.795Z,54.20
2018-10-19T11:16:33.139Z,56.70
2018-10-19T11:19:01.448Z,54.40
2018-10-19T11:21:29.712Z,55.13
2018-10-19T11:23:58.018Z,56.70
2018-10-19T11:26:26.341Z,57.13
2018-10-19T11:28:54.601Z,56.23
2018-10-19T11:31:22.855Z,52.27
2018-10-19T11:33:51.173Z,56.60
2018-10-19T11:36:19.429Z,57.00
2018-10-19T11:38:47.686Z,52.37
2018-10-19T11:41:15.915Z,52.07
2018-10-19T11:43:44.225Z,51.33
2018-10-19T11:46:12.528Z,52.07
2018-10-19T11:48:40.791Z,51.83
2018-10-19T11:51:09.093Z,51.53
2018-10-19T11:53:37.442Z,51.83
2018-10-19T11:56:05.751Z,47.70
2018-10-19T11:58:34.022Z,48.03
2018-10-19T12:01:02.313Z,48.43
2018-10-19T12:03:30.648Z,48.17
2018-10-19T12:05:58.990Z,51.83
2018-10-19T12:08:27.263Z,50.00
2018-10-19T12:10:55.521Z,81.90
2018-10-19T12:13:23.774Z,55.13
2018-10-19T12:15:52.072Z,41.37
2018-10-19T12:18:20.378Z,39.57
2018-10-19T12:20:48.685Z,39.53
2018-10-19T12:23:16.937Z,38.43
2018-10-19T12:25:45.178Z,37.23
2018-10-19T12:28:13.477Z,37.30
2018-10-19T12:30:41.716Z,38.67
2018-10-19T12:33:10.084Z,36.57
2018-10-19T12:35:38.406Z,38.50
2018-10-19T12:38:06.619Z,39.67
2018-10-19T12:40:34.927Z,41.43
2018-10-19T12:43:03.224Z,80.67
2018-10-19T12:46:36.103Z,44.67
2018-10-19T12:49:04.547Z,41.80
2018-10-19T12:51:32.889Z,41.10
2018-10-19T12:54:01.463Z,39.67
2018-10-19T12:56:29.553Z,40.40
2018-10-19T12:58:57.920Z,40.30
2018-10-19T13:01:27.457Z,38.80
2018-10-19T13:03:55.725Z,38.37
2018-10-19T13:06:23.988Z,38.43
2018-10-19T13:08:52.640Z,37.37
2018-10-19T13:11:21.212Z,36.10
2018-10-19T13:13:49.449Z,37.53
2018-10-19T13:16:17.761Z,35.70
2018-10-19T13:18:46.005Z,36.90
2018-10-19T13:21:14.393Z,37.13
2018-10-19T13:23:42.689Z,36.17
2018-10-19T13:26:10.985Z,35.30
2018-10-19T13:28:39.261Z,35.83
2018-10-19T13:31:07.537Z,35.47
2018-10-19T13:33:35.805Z,36.00
2018-10-19T13:36:04.163Z,36.43
2018-10-19T13:38:32.464Z,38.67
2018-10-19T13:41:00.703Z,39.10
2018-10-19T13:43:28.966Z,39.33
2018-10-19T13:45:57.280Z,40.77
2018-10-19T13:48:25.565Z,40.00
2018-10-19T13:50:53.898Z,37.90
2018-10-19T13:53:22.212Z,40.43
2018-10-19T13:55:50.692Z,39.13
2018-10-19T13:58:18.994Z,37.73
2018-10-19T14:00:47.242Z,37.33
2018-10-19T14:03:15.602Z,37.80
2018-10-19T14:05:43.928Z,40.63
2018-10-19T14:08:12.226Z,38.30
2018-10-19T14:10:40.463Z,38.77
2018-10-19T14:13:08.714Z,40.43
2018-10-19T14:15:36.960Z,43.17
2018-10-19T14:18:05.398Z,42.60
2018-10-19T14:20:33.711Z,42.33
2018-10-19T14:23:01.998Z,41.20
2018-10-19T14:25:30.297Z,41.30
2018-10-19T14:27:58.549Z,42.37
2018-10-19T14:30:26.827Z,41.07
2018-10-19T14:32:55.146Z,40.77
2018-10-19T14:35:23.446Z,45.00
2018-10-19T14:37:51.705Z,44.63
2018-10-19T14:40:20.668Z,43.00
2018-10-19T14:42:49.061Z,41.60
2018-10-19T14:45:17.882Z,42.93
2018-10-19T14:47:47.008Z,42.67
2018-10-19T14:50:16.430Z,40.63
2018-10-19T14:52:44.739Z,42.87
2018-10-19T14:55:14.196Z,44.33
2018-10-19T14:57:42.484Z,43.07
2018-10-19T15:00:12.464Z,47.63
2018-10-19T15:02:40.916Z,43.10
2018-10-19T15:05:10.745Z,47.03
2018-10-19T15:07:39.333Z,46.53
2018-10-19T15:10:08.705Z,49.70
2018-10-19T15:12:36.917Z,48.43
2018-10-19T15:15:05.415Z,49.73
2018-10-19T15:17:33.646Z,49.67
2018-10-19T15:20:02.161Z,48.30
2018-10-19T15:22:30.486Z,45.27
2018-10-19T15:24:59.119Z,45.20
2018-10-19T15:27:27.399Z,47.47
2018-10-19T15:29:55.771Z,45.73
2018-10-19T15:32:24.103Z,47.23
2018-10-19T15:34:52.469Z,49.63
2018-10-19T15:37:20.737Z,48.20
2018-10-19T15:39:48.996Z,47.37
2018-10-19T15:42:17.294Z,46.20
2018-10-19T15:44:48.189Z,44.93
2018-10-19T15:47:16.565Z,45.07
2018-10-19T15:49:44.839Z,42.60
2018-10-19T15:52:13.115Z,44.43
2018-10-19T15:54:41.379Z,46.60
2018-10-19T15:57:09.716Z,46.07
2018-10-19T15:59:38.147Z,46.53
2018-10-19T16:02:06.452Z,45.80
2018-10-19T16:04:34.713Z,45.90
2018-10-19T16:07:02.967Z,47.27
2018-10-19T16:09:31.213Z,47.87
2018-10-19T16:11:59.523Z,47.80
2018-10-19T16:14:33.605Z,47.07
2018-10-19T16:17:02.987Z,49.77
2018-10-19T16:19:31.494Z,51.23
2018-10-19T16:22:00.706Z,51.27
2018-10-19T16:24:29.021Z,51.23
2018-10-19T16:26:58.218Z,50.67
2018-10-19T16:29:26.828Z,50.43
2018-10-19T16:31:55.263Z,50.80
2018-10-19T16:34:23.634Z,53.60
2018-10-19T16:36:51.969Z,55.43
2018-10-19T16:39:20.309Z,59.27
2018-10-19T16:41:48.825Z,56.27
2018-10-19T16:44:17.219Z,55.20
2018-10-19T16:46:45.645Z,59.60
2018-10-19T16:49:14.040Z,57.80
2018-10-19T16:51:42.385Z,60.00
2018-10-19T16:54:11.900Z,57.43
2018-10-19T16:56:40.284Z,58.80
2018-10-19T16:59:11.464Z,56.20
2018-10-19T17:01:40.430Z,56.47
2018-10-19T17:04:09.478Z,57.57
2018-10-19T17:06:37.947Z,55.10
2018-10-19T17:09:08.326Z,73.47
2018-10-19T17:11:36.793Z,73.80
2018-10-19T17:14:05.293Z,64.23
2018-10-19T17:16:33.838Z,66.33
2018-10-19T17:19:09.138Z,69.00
2018-10-19T17:21:39.172Z,69.67
2018-10-19T17:24:07.586Z,70.17
2018-10-19T17:26:36.171Z,66.50
2018-10-19T17:29:05.188Z,65.90
2018-10-19T17:31:33.911Z,72.97
2018-10-19T17:34:02.765Z,98.30
2018-10-19T17:36:32.006Z,80.53
2018-10-19T17:39:00.412Z,73.50
2018-10-19T17:41:28.769Z,69.57
2018-10-19T17:43:57.151Z,69.33
2018-10-19T17:46:25.517Z,82.30
2018-10-19T17:48:54.002Z,72.97
2018-10-19T17:51:22.350Z,80.57
2018-10-19T17:53:56.879Z,73.07
2018-10-19T17:56:25.257Z,76.47
2018-10-19T17:58:54.605Z,78.27
2018-10-19T18:01:23.323Z,75.93
2018-10-19T18:03:52.057Z,108.23
2018-10-19T18:06:24.474Z,97.10
2018-10-19T18:08:55.044Z,100.07
2018-10-19T18:11:27.595Z,92.97
2018-10-19T18:13:59.930Z,87.73
2018-10-19T18:16:41.360Z,83.77
2018-10-19T18:19:10.256Z,90.77
2018-10-19T18:21:45.105Z,95.33
2018-10-19T18:24:15.423Z,102.53
2018-10-19T18:26:46.397Z,93.03
2018-10-19T18:29:18.345Z,75.07
2018-10-19T18:31:46.902Z,71.70
2018-10-19T18:34:18.772Z,69.47
2018-10-19T18:36:48.000Z,68.40
2018-10-19T18:39:16.376Z,68.47
2018-10-19T18:41:45.139Z,67.90
2018-10-19T18:44:13.660Z,67.63
2018-10-19T18:46:44.007Z,64.77
2018-10-19T18:49:12.487Z,64.97
2018-10-19T18:51:40.993Z,66.37
2018-10-19T18:54:09.471Z,60.57
2018-10-19T18:56:37.769Z,64.20
2018-10-19T18:59:06.276Z,60.40
2018-10-19T19:01:34.621Z,63.00
2018-10-19T19:04:02.998Z,60.77
2018-10-19T19:06:31.502Z,58.47
2018-10-19T19:08:59.931Z,60.43
2018-10-19T19:11:28.351Z,58.60
2018-10-19T19:13:56.733Z,60.97
2018-10-19T19:16:27.155Z,62.83
2018-10-19T19:18:55.528Z,54.83
2018-10-19T19:21:23.983Z,65.10
2018-10-19T19:23:58.030Z,60.93
2018-10-19T19:26:27.167Z,59.60
2018-10-19T19:28:55.846Z,59.43
2018-10-19T19:31:24.298Z,60.77
2018-10-19T19:33:58.083Z,63.13
2018-10-19T19:36:26.450Z,73.73
2018-10-19T19:38:54.815Z,69.87
2018-10-19T19:41:28.412Z,67.80
2018-10-19T19:43:56.799Z,68.07
2018-10-19T19:46:25.199Z,69.93
2018-10-19T19:48:58.896Z,68.10
2018-10-19T19:51:27.217Z,77.13
2018-10-19T19:53:55.588Z,69.83
2018-10-19T19:56:23.900Z,69.77
2018-10-19T19:58:52.244Z,72.93
2018-10-19T20:01:20.569Z,87.00
2018-10-19T20:03:48.875Z,94.47
2018-10-19T20:06:17.248Z,85.43
2018-10-19T20:08:45.683Z,78.60
2018-10-19T20:11:14.130Z,82.53
2018-10-19T20:13:42.481Z,78.03
2018-10-19T20:16:10.771Z,88.47
2018-10-19T20:18:39.102Z,119.17
2018-10-19T20:21:07.427Z,122.17
2018-10-19T20:23:36.588Z,107.47
2018-10-19T20:26:05.264Z,115.27
2018-10-19T20:28:33.658Z,113.13
2018-10-19T20:31:03.105Z,118.20
2018-10-19T20:33:31.602Z,117.03
2018-10-19T20:36:00.100Z,110.03
2018-10-19T20:38:28.483Z,108.43
2018-10-19T20:40:56.968Z,105.57
2018-10-19T20:43:25.238Z,97.50
2018-10-19T20:45:53.622Z,95.57
2018-10-19T20:51:02.003Z,84.00
2018-10-19T20:56:16.726Z,79.67
2018-10-19T20:58:46.088Z,76.13
2018-10-19T21:01:21.627Z,76.00
2018-10-19T21:03:54.023Z,79.17
2018-10-19T21:18:53.227Z,73.67
2018-10-19T21:33:22.816Z,69.77
2018-10-19T21:35:57.537Z,71.27
2018-10-19T21:38:27.298Z,71.07
2018-10-19T21:40:57.291Z,72.03
2018-10-19T21:43:28.551Z,71.70
2018-10-19T21:46:06.947Z,68.87
2018-10-19T21:54:12.230Z,77.00
2018-10-19T21:56:42.920Z,74.17
2018-10-19T21:59:17.483Z,72.40
2018-10-19T22:02:02.007Z,71.50
2018-10-19T22:04:36.007Z,68.97
2018-10-19T22:07:04.393Z,75.37
2018-10-19T22:09:34.796Z,72.40
2018-10-19T22:12:06.398Z,72.37
2018-10-19T22:17:13.627Z,71.10
2018-10-19T22:19:47.231Z,71.20
2018-10-19T22:22:19.076Z,72.37
2018-10-19T22:28:15.895Z,64.27
2018-10-19T22:30:48.464Z,66.40
2018-10-19T22:33:25.306Z,71.60
2018-10-19T22:35:56.210Z,69.07
2018-10-19T22:38:28.712Z,67.17
2018-10-19T22:40:57.119Z,69.03
2018-10-19T22:43:26.145Z,66.97
2018-10-19T22:45:55.665Z,62.17
2018-10-19T22:48:26.986Z,65.70
2018-10-19T22:51:02.700Z,64.27
2018-10-19T22:56:35.013Z,65.90
2018-10-19T22:59:04.341Z,63.77
2018-10-19T23:01:33.949Z,66.43
2018-10-19T23:04:05.953Z,69.97
2018-10-19T23:06:35.198Z,72.33
2018-10-19T23:09:04.299Z,74.87
2018-10-19T23:11:33.490Z,82.17
2018-10-19T23:14:01.795Z,75.30
2018-10-19T23:16:31.763Z,76.80
2018-10-19T23:19:00.429Z,85.13
2018-10-19T23:21:28.869Z,83.43
2018-10-19T23:23:57.284Z,79.63
2018-10-19T23:26:25.708Z,81.17
2018-10-19T23:28:54.024Z,78.77
2018-10-19T23:31:22.480Z,81.13
2018-10-19T23:33:50.845Z,79.63
2018-10-19T23:36:19.453Z,79.27
2018-10-19T23:38:47.762Z,81.97
2018-10-19T23:41:16.171Z,87.10
2018-10-19T23:43:44.494Z,93.53
2018-10-19T23:46:12.763Z,94.37
2018-10-19T23:48:41.132Z,90.03
2018-10-19T23:51:09.434Z,87.17
2018-10-19T23:53:37.841Z,86.17
2018-10-19T23:56:06.198Z,84.60
2018-10-19T23:58:34.601Z,89.83
